sensor_id;sensor_type;location;lat;lon;timestamp;temperature;humidity
22108;DHT22;11220;48.812;9.128;2023-01-10T00:01:30;17.60;79.60
22108;DHT22;11220;48.812;9.128;2023-01-10T00:03:56;17.50;78.60
22108;DHT22;11220;48.812;9.128;2023-01-10T00:06:21;17.50;78.60
22108;DHT22;11220;48.812;9.128;2023-01-10T00:08:47;17.50;78.60
22108;DHT22;11220;48.812;9.128;2023-01-10T00:11:13;17.50;78.60
22108;DHT22;11220;48.812;9.128;2023-01-10T00:13:57;17.50;78.50
22108;DHT22;11220;48.812;9.128;2023-01-10T00:16:22;17.50;78.50
22108;DHT22;11220;48.812;9.128;2023-01-10T00:18:48;17.50;78.50
22108;DHT22;11220;48.812;9.128;2023-01-10T00:21:14;17.50;78.50
22108;DHT22;11220;48.812;9.128;2023-01-10T00:23:41;17.50;78.40
22108;DHT22;11220;48.812;9.128;2023-01-10T00:26:10;17.50;78.50
22108;DHT22;11220;48.812;9.128;2023-01-10T00:28:36;17.50;78.50
22108;DHT22;11220;48.812;9.128;2023-01-10T00:31:03;17.50;78.50
22108;DHT22;11220;48.812;9.128;2023-01-10T00:33:33;17.50;78.50
22108;DHT22;11220;48.812;9.128;2023-01-10T00:36:00;17.50;78.50
22108;DHT22;11220;48.812;9.128;2023-01-10T00:38:26;17.50;78.40
22108;DHT22;11220;48.812;9.128;2023-01-10T00:40:52;17.50;78.40
22108;DHT22;11220;48.812;9.128;2023-01-10T00:43:18;17.40;78.40
22108;DHT22;11220;48.812;9.128;2023-01-10T00:46:02;17.50;78.40
22108;DHT22;11220;48.812;9.128;2023-01-10T00:48:28;17.50;78.40
22108;DHT22;11220;48.812;9.128;2023-01-10T00:50:53;17.50;78.30
22108;DHT22;11220;48.812;9.128;2023-01-10T00:53:19;17.50;78.30
22108;DHT22;11220;48.812;9.128;2023-01-10T00:55:45;17.40;78.20
22108;DHT22;11220;48.812;9.128;2023-01-10T00:58:12;17.50;78.30
22108;DHT22;11220;48.812;9.128;2023-01-10T01:00:38;17.40;78.20
22108;DHT22;11220;48.812;9.128;2023-01-10T01:03:05;17.40;78.20
22108;DHT22;11220;48.812;9.128;2023-01-10T01:05:31;17.40;78.20
22108;DHT22;11220;48.812;9.128;2023-01-10T01:07:56;17.40;78.20
22108;DHT22;11220;48.812;9.128;2023-01-10T01:10:22;17.40;78.20
22108;DHT22;11220;48.812;9.128;2023-01-10T01:12:50;17.40;78.20
22108;DHT22;11220;48.812;9.128;2023-01-10T01:15:16;17.40;78.10
22108;DHT22;11220;48.812;9.128;2023-01-10T01:17:41;17.40;78.20
22108;DHT22;11220;48.812;9.128;2023-01-10T01:20:08;17.40;78.10
22108;DHT22;11220;48.812;9.128;2023-01-10T01:22:33;17.40;78.20
22108;DHT22;11220;48.812;9.128;2023-01-10T01:24:59;17.30;78.10
22108;DHT22;11220;48.812;9.128;2023-01-10T01:27:25;17.40;78.10
22108;DHT22;11220;48.812;9.128;2023-01-10T01:29:50;17.40;78.10
22108;DHT22;11220;48.812;9.128;2023-01-10T01:32:16;17.40;78.10
22108;DHT22;11220;48.812;9.128;2023-01-10T01:34:41;17.40;78.10
22108;DHT22;11220;48.812;9.128;2023-01-10T01:37:07;17.30;78.00
22108;DHT22;11220;48.812;9.128;2023-01-10T01:39:33;17.40;78.10
22108;DHT22;11220;48.812;9.128;2023-01-10T01:41:58;17.30;78.00
22108;DHT22;11220;48.812;9.128;2023-01-10T01:44:30;17.30;77.90
22108;DHT22;11220;48.812;9.128;2023-01-10T01:47:07;17.30;77.90
22108;DHT22;11220;48.812;9.128;2023-01-10T01:49:40;17.30;77.90
22108;DHT22;11220;48.812;9.128;2023-01-10T01:52:10;17.30;77.90
22108;DHT22;11220;48.812;9.128;2023-01-10T01:54:36;17.30;77.90
22108;DHT22;11220;48.812;9.128;2023-01-10T01:57:16;17.30;77.90
22108;DHT22;11220;48.812;9.128;2023-01-10T01:59:44;17.30;77.90
22108;DHT22;11220;48.812;9.128;2023-01-10T02:02:18;17.30;77.80
22108;DHT22;11220;48.812;9.128;2023-01-10T02:04:52;17.30;77.70
22108;DHT22;11220;48.812;9.128;2023-01-10T02:07:19;17.30;77.80
22108;DHT22;11220;48.812;9.128;2023-01-10T02:09:50;17.30;77.70
22108;DHT22;11220;48.812;9.128;2023-01-10T02:12:18;17.30;77.70
22108;DHT22;11220;48.812;9.128;2023-01-10T02:14:44;17.30;77.70
22108;DHT22;11220;48.812;9.128;2023-01-10T02:17:11;17.30;77.70
22108;DHT22;11220;48.812;9.128;2023-01-10T02:19:59;17.30;77.60
22108;DHT22;11220;48.812;9.128;2023-01-10T02:25:15;17.20;77.60
22108;DHT22;11220;48.812;9.128;2023-01-10T02:33:27;17.20;77.60
22108;DHT22;11220;48.812;9.128;2023-01-10T02:41:35;17.20;77.60
22108;DHT22;11220;48.812;9.128;2023-01-10T02:44:09;17.20;77.60
22108;DHT22;11220;48.812;9.128;2023-01-10T02:46:37;17.20;77.50
22108;DHT22;11220;48.812;9.128;2023-01-10T02:49:03;17.20;77.60
22108;DHT22;11220;48.812;9.128;2023-01-10T02:51:30;17.20;77.60
22108;DHT22;11220;48.812;9.128;2023-01-10T02:59:48;17.20;77.60
22108;DHT22;11220;48.812;9.128;2023-01-10T03:08:09;17.20;77.50
22108;DHT22;11220;48.812;9.128;2023-01-10T03:10:55;17.20;77.60
22108;DHT22;11220;48.812;9.128;2023-01-10T03:15:55;17.20;77.50
22108;DHT22;11220;48.812;9.128;2023-01-10T03:18:26;17.20;77.60
22108;DHT22;11220;48.812;9.128;2023-01-10T03:20:53;17.20;77.50
22108;DHT22;11220;48.812;9.128;2023-01-10T03:23:21;17.20;77.50
22108;DHT22;11220;48.812;9.128;2023-01-10T03:25:48;17.20;77.60
22108;DHT22;11220;48.812;9.128;2023-01-10T03:28:18;17.20;77.60
22108;DHT22;11220;48.812;9.128;2023-01-10T03:30:51;17.10;77.50
22108;DHT22;11220;48.812;9.128;2023-01-10T03:33:23;17.10;77.40
22108;DHT22;11220;48.812;9.128;2023-01-10T03:35:51;17.10;77.50
22108;DHT22;11220;48.812;9.128;2023-01-10T03:44:03;17.10;77.50
22108;DHT22;11220;48.812;9.128;2023-01-10T03:46:54;17.10;77.60
22108;DHT22;11220;48.812;9.128;2023-01-10T03:49:23;17.10;77.50
22108;DHT22;11220;48.812;9.128;2023-01-10T03:51:50;17.10;77.40
22108;DHT22;11220;48.812;9.128;2023-01-10T03:54:17;17.10;77.50
22108;DHT22;11220;48.812;9.128;2023-01-10T03:56:47;17.10;77.50
22108;DHT22;11220;48.812;9.128;2023-01-10T03:59:18;17.10;77.50
22108;DHT22;11220;48.812;9.128;2023-01-10T04:01:45;17.10;77.50
22108;DHT22;11220;48.812;9.128;2023-01-10T04:04:11;17.10;77.60
22108;DHT22;11220;48.812;9.128;2023-01-10T04:06:37;17.10;77.50
22108;DHT22;11220;48.812;9.128;2023-01-10T04:09:02;17.10;77.60
22108;DHT22;11220;48.812;9.128;2023-01-10T04:11:28;17.10;77.50
22108;DHT22;11220;48.812;9.128;2023-01-10T04:13:53;17.10;77.60
22108;DHT22;11220;48.812;9.128;2023-01-10T04:16:19;17.10;77.50
22108;DHT22;11220;48.812;9.128;2023-01-10T04:18:45;17.00;77.50
22108;DHT22;11220;48.812;9.128;2023-01-10T04:21:10;17.10;77.50
22108;DHT22;11220;48.812;9.128;2023-01-10T04:23:36;17.00;77.50
22108;DHT22;11220;48.812;9.128;2023-01-10T04:26:01;17.10;77.60
22108;DHT22;11220;48.812;9.128;2023-01-10T04:28:27;17.10;77.60
22108;DHT22;11220;48.812;9.128;2023-01-10T04:30:53;17.10;77.60
22108;DHT22;11220;48.812;9.128;2023-01-10T04:33:18;17.00;77.50
22108;DHT22;11220;48.812;9.128;2023-01-10T04:35:50;17.00;77.50
22108;DHT22;11220;48.812;9.128;2023-01-10T04:38:16;17.00;77.50
22108;DHT22;11220;48.812;9.128;2023-01-10T04:40:43;17.00;77.50
22108;DHT22;11220;48.812;9.128;2023-01-10T04:43:09;17.10;77.70
22108;DHT22;11220;48.812;9.128;2023-01-10T04:45:35;17.00;77.60
22108;DHT22;11220;48.812;9.128;2023-01-10T04:48:00;17.00;77.60
22108;DHT22;11220;48.812;9.128;2023-01-10T04:50:26;17.00;77.60
22108;DHT22;11220;48.812;9.128;2023-01-10T04:52:52;17.00;77.60
22108;DHT22;11220;48.812;9.128;2023-01-10T04:55:18;17.00;77.60
22108;DHT22;11220;48.812;9.128;2023-01-10T04:57:44;17.00;77.60
22108;DHT22;11220;48.812;9.128;2023-01-10T05:00:11;17.00;77.60
22108;DHT22;11220;48.812;9.128;2023-01-10T05:02:36;17.00;77.70
22108;DHT22;11220;48.812;9.128;2023-01-10T05:05:11;17.00;77.60
22108;DHT22;11220;48.812;9.128;2023-01-10T05:07:37;16.90;78.50
22108;DHT22;11220;48.812;9.128;2023-01-10T05:10:04;17.00;77.60
22108;DHT22;11220;48.812;9.128;2023-01-10T05:12:30;17.00;77.50
22108;DHT22;11220;48.812;9.128;2023-01-10T05:14:55;16.90;77.50
22108;DHT22;11220;48.812;9.128;2023-01-10T05:17:21;17.00;77.60
22108;DHT22;11220;48.812;9.128;2023-01-10T05:19:46;18.00;78.30
22108;DHT22;11220;48.812;9.128;2023-01-10T05:22:12;16.90;77.50
22108;DHT22;11220;48.812;9.128;2023-01-10T05:24:37;16.90;77.50
22108;DHT22;11220;48.812;9.128;2023-01-10T05:27:03;16.90;77.50
22108;DHT22;11220;48.812;9.128;2023-01-10T05:29:28;16.90;77.50
22108;DHT22;11220;48.812;9.128;2023-01-10T05:31:54;16.90;77.50
22108;DHT22;11220;48.812;9.128;2023-01-10T05:34:19;16.90;77.60
22108;DHT22;11220;48.812;9.128;2023-01-10T05:36:45;16.90;78.50
22108;DHT22;11220;48.812;9.128;2023-01-10T05:39:10;16.90;77.50
22108;DHT22;11220;48.812;9.128;2023-01-10T05:41:38;16.90;77.60
22108;DHT22;11220;48.812;9.128;2023-01-10T05:44:05;16.90;77.50
22108;DHT22;11220;48.812;9.128;2023-01-10T05:46:30;16.90;77.60
22108;DHT22;11220;48.812;9.128;2023-01-10T05:48:56;16.90;77.50
22108;DHT22;11220;48.812;9.128;2023-01-10T05:51:21;16.90;77.50
22108;DHT22;11220;48.812;9.128;2023-01-10T05:53:47;16.90;77.50
22108;DHT22;11220;48.812;9.128;2023-01-10T05:56:12;16.90;77.50
22108;DHT22;11220;48.812;9.128;2023-01-10T05:58:38;16.90;78.40
22108;DHT22;11220;48.812;9.128;2023-01-10T06:01:03;16.90;77.40
22108;DHT22;11220;48.812;9.128;2023-01-10T06:03:29;16.90;77.40
22108;DHT22;11220;48.812;9.128;2023-01-10T06:05:54;17.00;77.50
22108;DHT22;11220;48.812;9.128;2023-01-10T06:08:20;17.00;77.40
22108;DHT22;11220;48.812;9.128;2023-01-10T06:10:46;17.00;77.40
22108;DHT22;11220;48.812;9.128;2023-01-10T06:13:12;17.00;77.40
22108;DHT22;11220;48.812;9.128;2023-01-10T06:15:38;17.00;77.50
22108;DHT22;11220;48.812;9.128;2023-01-10T06:18:03;17.00;77.70
22108;DHT22;11220;48.812;9.128;2023-01-10T06:20:29;17.10;77.80
22108;DHT22;11220;48.812;9.128;2023-01-10T06:22:54;17.00;77.70
22108;DHT22;11220;48.812;9.128;2023-01-10T06:25:20;17.00;77.80
22108;DHT22;11220;48.812;9.128;2023-01-10T06:27:45;17.00;77.90
22108;DHT22;11220;48.812;9.128;2023-01-10T06:30:12;17.00;77.90
22108;DHT22;11220;48.812;9.128;2023-01-10T06:32:38;17.10;78.00
22108;DHT22;11220;48.812;9.128;2023-01-10T06:35:04;17.10;78.10
22108;DHT22;11220;48.812;9.128;2023-01-10T06:37:30;17.10;78.10
22108;DHT22;11220;48.812;9.128;2023-01-10T06:39:56;17.20;78.10
22108;DHT22;11220;48.812;9.128;2023-01-10T06:42:21;17.10;78.00
22108;DHT22;11220;48.812;9.128;2023-01-10T06:44:47;17.20;78.10
22108;DHT22;11220;48.812;9.128;2023-01-10T06:47:12;17.20;78.00
22108;DHT22;11220;48.812;9.128;2023-01-10T06:49:38;17.30;78.10
22108;DHT22;11220;48.812;9.128;2023-01-10T06:52:03;17.30;78.00
22108;DHT22;11220;48.812;9.128;2023-01-10T06:54:29;17.30;78.00
22108;DHT22;11220;48.812;9.128;2023-01-10T06:56:54;17.30;77.90
22108;DHT22;11220;48.812;9.128;2023-01-10T06:59:20;17.40;78.00
22108;DHT22;11220;48.812;9.128;2023-01-10T07:01:45;17.40;77.90
22108;DHT22;11220;48.812;9.128;2023-01-10T07:04:11;17.40;77.90
22108;DHT22;11220;48.812;9.128;2023-01-10T07:06:37;17.40;77.90
22108;DHT22;11220;48.812;9.128;2023-01-10T07:09:04;17.40;77.90
22108;DHT22;11220;48.812;9.128;2023-01-10T07:11:30;17.40;77.80
22108;DHT22;11220;48.812;9.128;2023-01-10T07:13:56;17.50;77.90
22108;DHT22;11220;48.812;9.128;2023-01-10T07:16:21;17.40;77.80
22108;DHT22;11220;48.812;9.128;2023-01-10T07:18:47;17.50;77.80
22108;DHT22;11220;48.812;9.128;2023-01-10T07:21:13;17.50;77.80
22108;DHT22;11220;48.812;9.128;2023-01-10T07:23:39;17.50;77.80
22108;DHT22;11220;48.812;9.128;2023-01-10T07:26:07;17.50;77.70
22108;DHT22;11220;48.812;9.128;2023-01-10T07:28:33;17.50;77.80
22108;DHT22;11220;48.812;9.128;2023-01-10T07:31:01;17.60;77.80
22108;DHT22;11220;48.812;9.128;2023-01-10T07:33:27;17.50;77.80
22108;DHT22;11220;48.812;9.128;2023-01-10T07:35:53;17.50;77.80
22108;DHT22;11220;48.812;9.128;2023-01-10T07:38:18;17.50;77.80
22108;DHT22;11220;48.812;9.128;2023-01-10T07:40:44;17.70;77.90
22108;DHT22;11220;48.812;9.128;2023-01-10T07:43:09;17.60;77.80
22108;DHT22;11220;48.812;9.128;2023-01-10T07:45:35;17.60;77.90
22108;DHT22;11220;48.812;9.128;2023-01-10T07:48:02;17.60;77.90
22108;DHT22;11220;48.812;9.128;2023-01-10T07:50:31;17.60;77.90
22108;DHT22;11220;48.812;9.128;2023-01-10T07:52:58;17.60;77.90
22108;DHT22;11220;48.812;9.128;2023-01-10T07:55:24;17.60;77.90
22108;DHT22;11220;48.812;9.128;2023-01-10T07:57:50;17.60;77.90
22108;DHT22;11220;48.812;9.128;2023-01-10T08:00:17;17.60;78.00
22108;DHT22;11220;48.812;9.128;2023-01-10T08:02:43;17.60;78.10
22108;DHT22;11220;48.812;9.128;2023-01-10T08:05:09;17.60;78.20
22108;DHT22;11220;48.812;9.128;2023-01-10T08:07:34;17.60;78.30
22108;DHT22;11220;48.812;9.128;2023-01-10T08:10:00;17.60;78.30
22108;DHT22;11220;48.812;9.128;2023-01-10T08:12:26;17.70;78.50
22108;DHT22;11220;48.812;9.128;2023-01-10T08:14:51;17.70;78.50
22108;DHT22;11220;48.812;9.128;2023-01-10T08:17:17;17.70;78.60
22108;DHT22;11220;48.812;9.128;2023-01-10T08:19:43;17.70;78.60
22108;DHT22;11220;48.812;9.128;2023-01-10T08:22:09;17.70;78.60
22108;DHT22;11220;48.812;9.128;2023-01-10T08:24:35;17.70;78.60
22108;DHT22;11220;48.812;9.128;2023-01-10T08:27:01;17.70;78.60
22108;DHT22;11220;48.812;9.128;2023-01-10T08:29:27;17.70;78.60
22108;DHT22;11220;48.812;9.128;2023-01-10T08:31:53;17.70;78.60
22108;DHT22;11220;48.812;9.128;2023-01-10T08:34:18;17.70;78.50
22108;DHT22;11220;48.812;9.128;2023-01-10T08:36:44;17.70;78.50
22108;DHT22;11220;48.812;9.128;2023-01-10T08:39:11;17.70;78.60
22108;DHT22;11220;48.812;9.128;2023-01-10T08:41:36;17.70;78.60
22108;DHT22;11220;48.812;9.128;2023-01-10T08:44:04;17.70;78.80
22108;DHT22;11220;48.812;9.128;2023-01-10T08:46:29;17.70;78.90
22108;DHT22;11220;48.812;9.128;2023-01-10T08:48:55;17.70;79.00
22108;DHT22;11220;48.812;9.128;2023-01-10T08:51:21;17.70;79.10
22108;DHT22;11220;48.812;9.128;2023-01-10T08:53:46;17.80;79.20
22108;DHT22;11220;48.812;9.128;2023-01-10T08:56:12;17.80;79.30
22108;DHT22;11220;48.812;9.128;2023-01-10T08:58:37;17.80;79.30
22108;DHT22;11220;48.812;9.128;2023-01-10T09:01:04;17.80;79.40
22108;DHT22;11220;48.812;9.128;2023-01-10T09:03:30;17.80;79.40
22108;DHT22;11220;48.812;9.128;2023-01-10T09:05:57;17.80;79.40
22108;DHT22;11220;48.812;9.128;2023-01-10T09:08:23;17.80;79.40
22108;DHT22;11220;48.812;9.128;2023-01-10T09:10:49;17.80;79.30
22108;DHT22;11220;48.812;9.128;2023-01-10T09:13:15;17.90;79.40
22108;DHT22;11220;48.812;9.128;2023-01-10T09:15:41;17.90;79.40
22108;DHT22;11220;48.812;9.128;2023-01-10T09:18:07;17.90;79.40
22108;DHT22;11220;48.812;9.128;2023-01-10T09:20:36;17.90;79.30
22108;DHT22;11220;48.812;9.128;2023-01-10T09:23:10;17.90;79.30
22108;DHT22;11220;48.812;9.128;2023-01-10T09:25:36;17.90;79.30
22108;DHT22;11220;48.812;9.128;2023-01-10T09:28:03;17.90;79.30
22108;DHT22;11220;48.812;9.128;2023-01-10T09:30:30;17.90;79.30
22108;DHT22;11220;48.812;9.128;2023-01-10T09:32:57;17.90;79.20
22108;DHT22;11220;48.812;9.128;2023-01-10T09:35:24;17.90;79.20
22108;DHT22;11220;48.812;9.128;2023-01-10T09:37:53;17.90;79.20
22108;DHT22;11220;48.812;9.128;2023-01-10T09:46:11;17.90;79.20
22108;DHT22;11220;48.812;9.128;2023-01-10T09:48:56;17.90;79.10
22108;DHT22;11220;48.812;9.128;2023-01-10T09:51:34;17.90;79.10
22108;DHT22;11220;48.812;9.128;2023-01-10T09:54:04;17.90;79.10
22108;DHT22;11220;48.812;9.128;2023-01-10T09:56:32;17.90;79.00
22108;DHT22;11220;48.812;9.128;2023-01-10T09:58:58;17.90;79.00
22108;DHT22;11220;48.812;9.128;2023-01-10T10:01:34;17.90;79.00
22108;DHT22;11220;48.812;9.128;2023-01-10T10:06:49;17.90;79.00
22108;DHT22;11220;48.812;9.128;2023-01-10T10:09:18;18.00;78.90
22108;DHT22;11220;48.812;9.128;2023-01-10T10:11:52;18.00;78.90
22108;DHT22;11220;48.812;9.128;2023-01-10T10:28:56;18.00;78.80
22108;DHT22;11220;48.812;9.128;2023-01-10T10:34:36;18.00;78.80
22108;DHT22;11220;48.812;9.128;2023-01-10T10:37:40;18.00;78.70
22108;DHT22;11220;48.812;9.128;2023-01-10T10:42:46;18.00;78.70
22108;DHT22;11220;48.812;9.128;2023-01-10T10:45:22;18.00;78.60
22108;DHT22;11220;48.812;9.128;2023-01-10T10:47:54;18.00;78.60
22108;DHT22;11220;48.812;9.128;2023-01-10T10:50:27;18.00;79.50
22108;DHT22;11220;48.812;9.128;2023-01-10T10:52:55;18.00;78.60
22108;DHT22;11220;48.812;9.128;2023-01-10T10:55:31;18.00;78.60
22108;DHT22;11220;48.812;9.128;2023-01-10T10:57:57;18.10;78.50
22108;DHT22;11220;48.812;9.128;2023-01-10T11:00:23;18.10;78.50
22108;DHT22;11220;48.812;9.128;2023-01-10T11:03:12;18.10;78.50
22108;DHT22;11220;48.812;9.128;2023-01-10T11:05:43;18.10;78.50
22108;DHT22;11220;48.812;9.128;2023-01-10T11:08:12;18.10;78.50
22108;DHT22;11220;48.812;9.128;2023-01-10T11:10:42;18.10;78.50
22108;DHT22;11220;48.812;9.128;2023-01-10T11:13:14;18.10;78.60
22108;DHT22;11220;48.812;9.128;2023-01-10T11:15:44;18.10;78.50
22108;DHT22;11220;48.812;9.128;2023-01-10T11:18:19;18.10;78.50
22108;DHT22;11220;48.812;9.128;2023-01-10T11:21:10;18.10;78.50
22108;DHT22;11220;48.812;9.128;2023-01-10T11:23:47;18.10;78.50
22108;DHT22;11220;48.812;9.128;2023-01-10T11:26:38;18.10;78.50
22108;DHT22;11220;48.812;9.128;2023-01-10T11:29:16;18.10;78.50
22108;DHT22;11220;48.812;9.128;2023-01-10T11:31:42;18.10;78.50
22108;DHT22;11220;48.812;9.128;2023-01-10T11:34:30;18.10;78.50
22108;DHT22;11220;48.812;9.128;2023-01-10T11:39:40;18.10;78.40
22108;DHT22;11220;48.812;9.128;2023-01-10T11:42:26;18.10;78.40
22108;DHT22;11220;48.812;9.128;2023-01-10T11:44:54;18.10;78.40
22108;DHT22;11220;48.812;9.128;2023-01-10T11:47:20;18.10;78.40
22108;DHT22;11220;48.812;9.128;2023-01-10T11:49:48;18.10;78.50
22108;DHT22;11220;48.812;9.128;2023-01-10T11:52:28;18.10;78.50
22108;DHT22;11220;48.812;9.128;2023-01-10T11:54:54;18.10;78.50
22108;DHT22;11220;48.812;9.128;2023-01-10T11:57:22;18.10;78.60
22108;DHT22;11220;48.812;9.128;2023-01-10T12:00:00;18.10;78.60
22108;DHT22;11220;48.812;9.128;2023-01-10T12:02:33;18.10;78.60
22108;DHT22;11220;48.812;9.128;2023-01-10T12:05:02;18.10;78.60
22108;DHT22;11220;48.812;9.128;2023-01-10T12:07:28;18.10;78.60
22108;DHT22;11220;48.812;9.128;2023-01-10T12:10:01;18.10;78.60
22108;DHT22;11220;48.812;9.128;2023-01-10T12:12:29;18.10;78.60
22108;DHT22;11220;48.812;9.128;2023-01-10T12:14:57;18.10;78.70
22108;DHT22;11220;48.812;9.128;2023-01-10T12:19:55;18.10;78.60
22108;DHT22;11220;48.812;9.128;2023-01-10T12:22:39;18.40;78.80
22108;DHT22;11220;48.812;9.128;2023-01-10T12:25:21;18.10;78.70
22108;DHT22;11220;48.812;9.128;2023-01-10T12:27:48;18.10;78.60
22108;DHT22;11220;48.812;9.128;2023-01-10T12:30:33;18.10;78.60
22108;DHT22;11220;48.812;9.128;2023-01-10T12:33:03;18.10;78.60
22108;DHT22;11220;48.812;9.128;2023-01-10T12:35:56;18.10;78.60
22108;DHT22;11220;48.812;9.128;2023-01-10T12:41:15;18.20;78.60
22108;DHT22;11220;48.812;9.128;2023-01-10T12:44:06;18.20;78.60
22108;DHT22;11220;48.812;9.128;2023-01-10T12:46:45;18.20;78.60
22108;DHT22;11220;48.812;9.128;2023-01-10T12:49:28;18.20;78.50
22108;DHT22;11220;48.812;9.128;2023-01-10T12:51:58;18.20;78.50
22108;DHT22;11220;48.812;9.128;2023-01-10T12:54:27;18.10;78.40
22108;DHT22;11220;48.812;9.128;2023-01-10T12:56:55;18.10;78.30
22108;DHT22;11220;48.812;9.128;2023-01-10T12:59:36;18.10;78.30
22108;DHT22;11220;48.812;9.128;2023-01-10T13:02:14;18.10;79.20
22108;DHT22;11220;48.812;9.128;2023-01-10T13:04:42;18.10;78.30
22108;DHT22;11220;48.812;9.128;2023-01-10T13:07:12;18.10;78.30
22108;DHT22;11220;48.812;9.128;2023-01-10T13:09:40;18.10;78.30
22108;DHT22;11220;48.812;9.128;2023-01-10T13:12:32;18.10;78.30
22108;DHT22;11220;48.812;9.128;2023-01-10T13:22:45;18.10;78.10
22108;DHT22;11220;48.812;9.128;2023-01-10T13:25:38;17.90;69.20
22108;DHT22;11220;48.812;9.128;2023-01-10T13:28:17;17.50;64.40
22108;DHT22;11220;48.812;9.128;2023-01-10T13:30:43;17.30;65.90
22108;DHT22;11220;48.812;9.128;2023-01-10T13:33:27;17.30;68.00
22108;DHT22;11220;48.812;9.128;2023-01-10T13:35:56;17.30;70.00
22108;DHT22;11220;48.812;9.128;2023-01-10T13:38:57;17.30;71.50
22108;DHT22;11220;48.812;9.128;2023-01-10T13:55:31;17.70;74.40
22108;DHT22;11220;48.812;9.128;2023-01-10T14:03:50;17.80;75.70
22108;DHT22;11220;48.812;9.128;2023-01-10T14:09:26;17.90;76.30
22108;DHT22;11220;48.812;9.128;2023-01-10T14:11:56;17.90;76.50
22108;DHT22;11220;48.812;9.128;2023-01-10T14:14:38;17.90;76.80
22108;DHT22;11220;48.812;9.128;2023-01-10T14:19:46;18.00;77.30
22108;DHT22;11220;48.812;9.128;2023-01-10T14:22:28;18.00;77.40
22108;DHT22;11220;48.812;9.128;2023-01-10T14:24:57;18.00;77.50
22108;DHT22;11220;48.812;9.128;2023-01-10T14:27:23;18.00;77.60
22108;DHT22;11220;48.812;9.128;2023-01-10T14:34:55;18.00;77.90
22108;DHT22;11220;48.812;9.128;2023-01-10T14:37:29;18.00;76.20
22108;DHT22;11220;48.812;9.128;2023-01-10T14:39:57;17.90;72.80
22108;DHT22;11220;48.812;9.128;2023-01-10T14:42:24;17.70;72.50
22108;DHT22;11220;48.812;9.128;2023-01-10T14:44:58;17.70;73.20
22108;DHT22;11220;48.812;9.128;2023-01-10T14:49:53;17.70;75.30
22108;DHT22;11220;48.812;9.128;2023-01-10T14:52:31;17.80;76.00
22108;DHT22;11220;48.812;9.128;2023-01-10T14:55:05;17.80;75.10
22108;DHT22;11220;48.812;9.128;2023-01-10T14:57:33;17.70;73.70
22108;DHT22;11220;48.812;9.128;2023-01-10T15:00:07;17.70;72.00
22108;DHT22;11220;48.812;9.128;2023-01-10T15:02:36;17.60;72.40
22108;DHT22;11220;48.812;9.128;2023-01-10T15:05:16;17.60;74.20
22108;DHT22;11220;48.812;9.128;2023-01-10T15:07:42;17.70;74.20
22108;DHT22;11220;48.812;9.128;2023-01-10T15:10:21;17.70;74.90
22108;DHT22;11220;48.812;9.128;2023-01-10T15:12:50;17.70;75.50
22108;DHT22;11220;48.812;9.128;2023-01-10T15:15:18;17.70;75.90
22108;DHT22;11220;48.812;9.128;2023-01-10T15:17:44;17.80;76.30
22108;DHT22;11220;48.812;9.128;2023-01-10T15:20:15;17.80;76.50
22108;DHT22;11220;48.812;9.128;2023-01-10T15:22:44;17.80;76.60
22108;DHT22;11220;48.812;9.128;2023-01-10T15:27:48;17.80;76.90
22108;DHT22;11220;48.812;9.128;2023-01-10T15:30:22;17.80;77.00
22108;DHT22;11220;48.812;9.128;2023-01-10T15:32:53;17.80;77.10
22108;DHT22;11220;48.812;9.128;2023-01-10T15:35:21;17.80;77.20
22108;DHT22;11220;48.812;9.128;2023-01-10T15:37:53;17.80;77.20
22108;DHT22;11220;48.812;9.128;2023-01-10T15:40:23;17.80;77.30
22108;DHT22;11220;48.812;9.128;2023-01-10T15:42:49;17.80;77.30
22108;DHT22;11220;48.812;9.128;2023-01-10T15:47:53;17.90;77.50
22108;DHT22;11220;48.812;9.128;2023-01-10T15:50:32;17.80;77.50
22108;DHT22;11220;48.812;9.128;2023-01-10T15:53:00;17.80;77.60
22108;DHT22;11220;48.812;9.128;2023-01-10T15:55:48;17.80;77.60
22108;DHT22;11220;48.812;9.128;2023-01-10T15:58:17;17.80;77.70
22108;DHT22;11220;48.812;9.128;2023-01-10T16:00:45;17.80;77.70
22108;DHT22;11220;48.812;9.128;2023-01-10T16:03:22;17.80;77.80
22108;DHT22;11220;48.812;9.128;2023-01-10T16:05:58;17.80;78.70
22108;DHT22;11220;48.812;9.128;2023-01-10T16:08:26;17.80;77.80
22108;DHT22;11220;48.812;9.128;2023-01-10T16:10:58;17.80;77.90
22108;DHT22;11220;48.812;9.128;2023-01-10T16:13:24;17.80;77.80
22108;DHT22;11220;48.812;9.128;2023-01-10T16:15:56;17.80;77.90
22108;DHT22;11220;48.812;9.128;2023-01-10T16:18:22;17.80;77.90
22108;DHT22;11220;48.812;9.128;2023-01-10T16:20:50;17.80;77.90
22108;DHT22;11220;48.812;9.128;2023-01-10T16:23:18;17.80;77.90
22108;DHT22;11220;48.812;9.128;2023-01-10T16:25:46;17.80;77.90
22108;DHT22;11220;48.812;9.128;2023-01-10T16:28:15;17.80;77.90
22108;DHT22;11220;48.812;9.128;2023-01-10T16:30:41;17.80;77.90
22108;DHT22;11220;48.812;9.128;2023-01-10T16:33:24;17.70;77.90
22108;DHT22;11220;48.812;9.128;2023-01-10T16:35:54;17.80;77.90
22108;DHT22;11220;48.812;9.128;2023-01-10T16:38:21;17.80;77.90
22108;DHT22;11220;48.812;9.128;2023-01-10T16:40:50;17.70;77.90
22108;DHT22;11220;48.812;9.128;2023-01-10T16:43:17;17.70;78.00
22108;DHT22;11220;48.812;9.128;2023-01-10T16:45:51;17.70;78.00
22108;DHT22;11220;48.812;9.128;2023-01-10T16:48:18;17.80;78.00
22108;DHT22;11220;48.812;9.128;2023-01-10T16:50:45;17.70;78.10
22108;DHT22;11220;48.812;9.128;2023-01-10T16:53:15;17.70;78.10
22108;DHT22;11220;48.812;9.128;2023-01-10T16:55:43;17.70;78.10
22108;DHT22;11220;48.812;9.128;2023-01-10T16:58:10;17.70;78.10
22108;DHT22;11220;48.812;9.128;2023-01-10T17:00:37;17.70;78.10
22108;DHT22;11220;48.812;9.128;2023-01-10T17:03:05;17.80;78.20
22108;DHT22;11220;48.812;9.128;2023-01-10T17:05:33;17.70;78.10
22108;DHT22;11220;48.812;9.128;2023-01-10T17:08:00;17.70;78.10
22108;DHT22;11220;48.812;9.128;2023-01-10T17:10:25;17.70;78.10
22108;DHT22;11220;48.812;9.128;2023-01-10T17:12:51;18.10;78.30
22108;DHT22;11220;48.812;9.128;2023-01-10T17:15:17;17.70;78.10
22108;DHT22;11220;48.812;9.128;2023-01-10T17:17:43;17.70;78.10
22108;DHT22;11220;48.812;9.128;2023-01-10T17:20:11;17.70;78.10
22108;DHT22;11220;48.812;9.128;2023-01-10T17:22:37;17.70;78.10
22108;DHT22;11220;48.812;9.128;2023-01-10T17:25:03;17.70;78.10
22108;DHT22;11220;48.812;9.128;2023-01-10T17:27:29;17.70;78.20
22108;DHT22;11220;48.812;9.128;2023-01-10T17:29:54;17.70;78.20
22108;DHT22;11220;48.812;9.128;2023-01-10T17:32:20;17.70;78.20
22108;DHT22;11220;48.812;9.128;2023-01-10T17:34:45;17.70;78.20
22108;DHT22;11220;48.812;9.128;2023-01-10T17:37:11;17.70;78.20
22108;DHT22;11220;48.812;9.128;2023-01-10T17:39:37;17.70;78.20